createdAt,value
2023-08-16T00:00:44.087Z,3.14
2023-08-16T00:01:47.289Z,2.71
2023-08-16T00:02:50.648Z,1.43
2023-08-16T00:03:53.960Z,1.57
2023-08-16T00:04:57.329Z,1.00
2023-08-16T00:06:00.506Z,1.00
2023-08-16T00:07:03.807Z,1.00
2023-08-16T00:08:06.877Z,1.43
2023-08-16T00:09:10.066Z,1.00
2023-08-16T00:10:13.159Z,1.00
2023-08-16T00:11:16.312Z,1.00
2023-08-16T00:12:19.615Z,1.00
2023-08-16T00:13:22.787Z,1.00
2023-08-16T00:14:25.936Z,0.14
2023-08-16T00:15:29.017Z,0.00
2023-08-16T00:16:32.249Z,0.50
2023-08-16T00:17:35.386Z,0.00
2023-08-16T00:18:38.493Z,0.86
2023-08-16T00:19:41.459Z,1.00
2023-08-16T00:20:44.646Z,1.00
2023-08-16T00:21:47.829Z,0.50
2023-08-16T00:22:50.914Z,0.00
2023-08-16T00:23:54.082Z,0.00
2023-08-16T00:24:57.473Z,0.00
2023-08-16T00:26:00.758Z,0.00
2023-08-16T00:27:03.949Z,0.00
2023-08-16T00:28:07.133Z,0.00
2023-08-16T00:29:10.313Z,0.00
2023-08-16T00:30:13.493Z,0.00
2023-08-16T00:31:16.584Z,0.00
2023-08-16T00:32:19.746Z,0.00
2023-08-16T00:33:22.900Z,0.00
2023-08-16T00:34:26.020Z,0.00
2023-08-16T00:35:29.205Z,0.00
2023-08-16T00:36:32.295Z,0.00
2023-08-16T00:37:35.452Z,0.00
2023-08-16T00:38:38.655Z,0.14
2023-08-16T00:39:41.726Z,0.43
2023-08-16T00:40:44.802Z,0.00
2023-08-16T00:41:47.981Z,0.00
2023-08-16T00:42:51.063Z,0.00
2023-08-16T00:43:54.228Z,0.00
2023-08-16T00:44:57.654Z,0.00
2023-08-16T00:46:00.951Z,0.00
2023-08-16T00:47:04.288Z,0.00
2023-08-16T00:48:07.667Z,0.00
2023-08-16T00:49:10.818Z,0.00
2023-08-16T00:50:14.055Z,0.00
2023-08-16T00:51:17.423Z,0.00
2023-08-16T00:52:20.685Z,0.00
2023-08-16T00:53:24.102Z,0.00
2023-08-16T00:54:27.597Z,0.00
2023-08-16T00:55:31.077Z,0.00
2023-08-16T00:56:34.463Z,0.00
2023-08-16T00:57:37.764Z,0.00
2023-08-16T00:58:41.063Z,0.00
2023-08-16T00:59:44.519Z,0.00
2023-08-16T01:00:47.915Z,0.00
2023-08-16T01:01:51.374Z,0.00
2023-08-16T01:02:54.856Z,0.00
2023-08-16T01:03:58.178Z,0.00
2023-08-16T01:05:01.454Z,0.00
2023-08-16T01:06:04.812Z,0.00
2023-08-16T01:07:08.235Z,0.00
2023-08-16T01:08:11.888Z,0.00
2023-08-16T01:09:15.311Z,0.00
2023-08-16T01:10:18.657Z,0.00
2023-08-16T01:11:21.960Z,0.00
2023-08-16T01:12:25.292Z,0.00
2023-08-16T01:13:28.544Z,0.00
2023-08-16T01:14:31.841Z,0.00
2023-08-16T01:15:35.237Z,0.00
2023-08-16T01:16:38.632Z,0.00
2023-08-16T01:17:41.920Z,0.00
2023-08-16T01:18:44.986Z,0.00
2023-08-16T01:19:48.496Z,0.00
2023-08-16T01:20:52.267Z,0.00
2023-08-16T01:21:55.541Z,0.00
2023-08-16T01:22:58.821Z,0.00
2023-08-16T01:24:02.013Z,0.00
2023-08-16T01:25:05.599Z,0.00
2023-08-16T01:26:08.991Z,0.00
2023-08-16T01:27:12.174Z,0.00
2023-08-16T01:28:15.574Z,0.00
2023-08-16T01:29:18.812Z,0.00
2023-08-16T01:30:22.282Z,0.00
2023-08-16T01:31:25.590Z,0.00
2023-08-16T01:32:28.943Z,0.00
2023-08-16T01:33:32.173Z,0.00
2023-08-16T01:34:35.425Z,0.00
2023-08-16T01:35:38.754Z,0.00
2023-08-16T01:36:41.944Z,0.00
2023-08-16T01:37:45.228Z,0.00
2023-08-16T01:38:48.498Z,0.00
2023-08-16T01:39:51.785Z,0.00
2023-08-16T01:40:55.165Z,0.00
2023-08-16T01:41:58.784Z,0.00
2023-08-16T01:43:02.059Z,0.00
2023-08-16T01:44:05.528Z,0.00
2023-08-16T01:45:09.041Z,0.00
2023-08-16T01:46:12.393Z,0.00
2023-08-16T01:47:15.693Z,0.00
2023-08-16T01:48:18.974Z,0.00
2023-08-16T01:49:22.260Z,0.00
2023-08-16T01:50:25.664Z,0.00
2023-08-16T01:51:28.904Z,0.00
2023-08-16T01:52:32.229Z,0.00
2023-08-16T01:53:35.431Z,0.00
2023-08-16T01:54:38.798Z,0.00
2023-08-16T01:55:42.107Z,0.00
2023-08-16T01:56:45.367Z,0.00
2023-08-16T01:57:48.753Z,0.00
2023-08-16T01:58:52.034Z,0.00
2023-08-16T01:59:55.108Z,0.00
2023-08-16T02:00:58.325Z,0.00
2023-08-16T02:02:01.356Z,0.00
2023-08-16T02:03:04.441Z,0.00
2023-08-16T02:04:07.739Z,0.00
2023-08-16T02:05:11.031Z,0.00
2023-08-16T02:06:14.410Z,0.00
2023-08-16T02:07:17.892Z,0.00
2023-08-16T02:08:21.186Z,0.00
2023-08-16T02:09:24.569Z,0.00
2023-08-16T02:10:28.109Z,0.00
2023-08-16T02:11:31.455Z,0.00
2023-08-16T02:12:34.710Z,0.00
2023-08-16T02:13:37.900Z,0.00
2023-08-16T02:14:41.083Z,0.00
2023-08-16T02:15:44.413Z,0.00
2023-08-16T02:16:47.658Z,0.00
2023-08-16T02:17:50.970Z,0.00
2023-08-16T02:18:54.331Z,0.00
2023-08-16T02:19:57.483Z,0.00
2023-08-16T02:21:00.906Z,0.00
2023-08-16T02:22:04.275Z,0.00
2023-08-16T02:23:07.355Z,0.00
2023-08-16T02:24:10.423Z,0.00
2023-08-16T02:25:13.433Z,0.00
2023-08-16T02:26:16.822Z,0.00
2023-08-16T02:27:20.113Z,0.00
2023-08-16T02:28:23.380Z,0.00
2023-08-16T02:29:26.661Z,0.00
2023-08-16T02:30:29.745Z,0.00
2023-08-16T02:31:33.172Z,0.00
2023-08-16T02:32:36.438Z,0.00
2023-08-16T02:33:39.994Z,0.00
2023-08-16T02:34:43.286Z,0.00
2023-08-16T02:35:46.560Z,0.00
2023-08-16T02:36:49.951Z,0.00
2023-08-16T02:37:53.242Z,0.00
2023-08-16T02:38:56.481Z,0.00
2023-08-16T02:39:59.839Z,0.00
2023-08-16T02:41:03.291Z,0.00
2023-08-16T02:42:06.694Z,0.00
2023-08-16T02:43:10.075Z,0.00
2023-08-16T02:44:13.452Z,0.00
2023-08-16T02:45:16.732Z,0.00
2023-08-16T02:46:19.855Z,0.00
2023-08-16T02:47:23.399Z,0.00
2023-08-16T02:48:26.602Z,0.00
2023-08-16T02:49:30.184Z,0.00
2023-08-16T02:50:33.379Z,0.00
2023-08-16T02:51:36.645Z,0.00
2023-08-16T02:52:39.840Z,0.00
2023-08-16T02:53:42.906Z,0.00
2023-08-16T02:54:45.998Z,0.00
2023-08-16T02:55:49.068Z,0.00
2023-08-16T02:56:52.265Z,0.00
2023-08-16T02:57:55.449Z,0.00
2023-08-16T02:58:58.517Z,0.00
2023-08-16T03:00:01.652Z,0.00
2023-08-16T03:01:04.957Z,0.00
2023-08-16T03:02:08.225Z,0.00
2023-08-16T03:03:11.471Z,0.00
2023-08-16T03:04:14.792Z,0.00
2023-08-16T03:05:18.114Z,0.00
2023-08-16T03:06:21.418Z,0.00
2023-08-16T03:07:25.084Z,0.00
2023-08-16T03:08:28.689Z,0.00
2023-08-16T03:09:31.987Z,0.00
2023-08-16T03:10:35.159Z,0.00
2023-08-16T03:11:38.544Z,0.00
2023-08-16T03:12:41.820Z,0.00
2023-08-16T03:13:45.103Z,0.00
2023-08-16T03:14:48.494Z,0.00
2023-08-16T03:15:51.476Z,0.00
2023-08-16T03:16:54.803Z,0.00
2023-08-16T03:17:58.182Z,0.00
2023-08-16T03:19:01.452Z,0.00
2023-08-16T03:20:05.838Z,0.00
2023-08-16T03:21:08.911Z,0.00
2023-08-16T03:22:12.105Z,0.00
2023-08-16T03:23:15.181Z,0.00
2023-08-16T03:24:18.253Z,0.00
2023-08-16T03:25:21.549Z,0.00
2023-08-16T03:26:24.825Z,0.00
2023-08-16T03:27:27.956Z,0.00
2023-08-16T03:28:31.086Z,0.00
2023-08-16T03:29:34.170Z,0.00
2023-08-16T03:30:37.255Z,0.00
2023-08-16T03:31:40.534Z,0.00
2023-08-16T03:32:43.755Z,0.00
2023-08-16T03:33:46.899Z,0.00
2023-08-16T03:34:49.959Z,0.00
2023-08-16T03:35:52.926Z,0.00
2023-08-16T03:36:56.134Z,0.00
2023-08-16T03:37:59.114Z,0.00
2023-08-16T03:39:02.302Z,0.00
2023-08-16T03:40:05.333Z,0.00
2023-08-16T03:41:08.463Z,0.00
2023-08-16T03:42:11.544Z,0.00
2023-08-16T03:43:14.706Z,0.00
2023-08-16T03:44:17.812Z,0.00
2023-08-16T03:45:20.883Z,0.00
2023-08-16T03:46:23.988Z,0.00
2023-08-16T03:47:27.744Z,0.00
2023-08-16T03:48:31.248Z,0.00
2023-08-16T03:49:34.318Z,0.00
2023-08-16T03:50:37.260Z,0.00
2023-08-16T03:51:40.234Z,0.00
2023-08-16T03:52:43.387Z,0.00
2023-08-16T03:53:46.507Z,0.00
2023-08-16T03:54:49.609Z,0.00
2023-08-16T03:55:52.584Z,0.00
2023-08-16T03:56:55.664Z,0.00
2023-08-16T03:57:58.753Z,0.00
2023-08-16T03:59:02.031Z,0.00
2023-08-16T04:00:05.221Z,0.00
2023-08-16T04:01:08.194Z,0.00
2023-08-16T04:02:11.432Z,0.00
2023-08-16T04:03:14.720Z,0.00
2023-08-16T04:04:17.944Z,0.00
2023-08-16T04:05:21.141Z,0.00
2023-08-16T04:06:24.169Z,0.00
2023-08-16T04:07:27.384Z,0.00
2023-08-16T04:08:30.473Z,0.00
2023-08-16T04:09:33.654Z,0.00
2023-08-16T04:10:36.798Z,0.00
2023-08-16T04:11:40.011Z,0.00
2023-08-16T04:12:43.123Z,0.00
2023-08-16T04:13:46.373Z,0.00
2023-08-16T04:14:49.595Z,0.00
2023-08-16T04:15:52.794Z,0.00
2023-08-16T04:16:56.122Z,0.00
2023-08-16T04:17:59.329Z,0.00
2023-08-16T04:19:02.309Z,0.00
2023-08-16T04:20:05.369Z,0.00
2023-08-16T04:21:08.545Z,0.00
2023-08-16T04:22:11.724Z,0.00
2023-08-16T04:23:14.926Z,0.00
2023-08-16T04:24:17.881Z,0.00
2023-08-16T04:25:21.086Z,0.00
2023-08-16T04:26:24.250Z,0.00
2023-08-16T04:27:27.223Z,0.00
2023-08-16T04:28:30.173Z,0.00
2023-08-16T04:29:33.297Z,0.00
2023-08-16T04:30:36.451Z,0.00
2023-08-16T04:31:39.534Z,0.00
2023-08-16T04:32:42.761Z,0.00
2023-08-16T04:33:46.017Z,0.00
2023-08-16T04:34:49.209Z,0.00
2023-08-16T04:35:52.370Z,0.00
2023-08-16T04:36:55.576Z,0.00
2023-08-16T04:38:06.793Z,0.00
2023-08-16T04:39:09.777Z,0.00
2023-08-16T04:40:12.911Z,0.00
2023-08-16T04:41:15.868Z,0.00
2023-08-16T04:42:18.946Z,0.00
2023-08-16T04:43:21.942Z,0.00
2023-08-16T04:44:24.964Z,0.00
2023-08-16T04:45:28.077Z,0.00
2023-08-16T04:46:31.163Z,0.00
2023-08-16T04:47:34.364Z,0.00
2023-08-16T04:48:37.529Z,0.00
2023-08-16T04:49:40.709Z,0.00
2023-08-16T04:50:43.986Z,0.00
2023-08-16T04:51:47.185Z,0.00
2023-08-16T04:52:50.538Z,0.00
2023-08-16T04:53:53.636Z,0.00
2023-08-16T04:54:57.356Z,0.00
2023-08-16T04:56:00.547Z,0.00
2023-08-16T04:57:03.489Z,0.00
2023-08-16T04:58:06.768Z,0.00
2023-08-16T04:59:09.965Z,0.00
2023-08-16T05:00:13.029Z,0.00
2023-08-16T05:01:16.135Z,0.00
2023-08-16T05:02:19.258Z,0.00
2023-08-16T05:03:22.401Z,0.00
2023-08-16T05:04:25.693Z,0.00
2023-08-16T05:05:28.796Z,0.00
2023-08-16T05:06:31.925Z,0.00
2023-08-16T05:07:34.905Z,0.00
2023-08-16T05:08:37.987Z,0.00
2023-08-16T05:09:41.155Z,0.00
2023-08-16T05:10:44.540Z,0.00
2023-08-16T05:11:47.846Z,0.00
2023-08-16T05:12:51.126Z,0.00
2023-08-16T05:13:54.503Z,0.00
2023-08-16T05:14:57.788Z,0.00
2023-08-16T05:16:01.190Z,0.00
2023-08-16T05:17:04.397Z,0.00
2023-08-16T05:18:07.697Z,0.00
2023-08-16T05:19:10.815Z,0.00
2023-08-16T05:20:14.105Z,0.00
2023-08-16T05:21:17.330Z,0.00
2023-08-16T05:22:20.519Z,0.00
2023-08-16T05:23:23.558Z,0.00
2023-08-16T05:24:26.749Z,0.00
2023-08-16T05:25:29.810Z,0.00
2023-08-16T05:26:33.008Z,0.00
2023-08-16T05:27:36.089Z,0.00
2023-08-16T05:28:39.154Z,0.00
2023-08-16T05:29:42.132Z,0.00
2023-08-16T05:30:45.314Z,0.00
2023-08-16T05:31:48.496Z,0.00
2023-08-16T05:32:51.905Z,0.00
2023-08-16T05:33:55.582Z,0.00
2023-08-16T05:34:58.931Z,0.00
2023-08-16T05:36:02.243Z,0.00
2023-08-16T05:37:05.631Z,0.00
2023-08-16T05:38:08.820Z,0.00
2023-08-16T05:39:12.060Z,0.00
2023-08-16T05:40:15.288Z,0.00
2023-08-16T05:41:18.680Z,0.00
2023-08-16T05:42:21.858Z,0.00
2023-08-16T05:43:25.525Z,0.00
2023-08-16T05:44:28.838Z,0.00
2023-08-16T05:45:32.213Z,0.00
2023-08-16T05:46:35.659Z,0.00
2023-08-16T05:47:38.917Z,0.00
2023-08-16T05:48:42.368Z,0.00
2023-08-16T05:49:45.666Z,0.00
2023-08-16T05:50:49.023Z,0.00
2023-08-16T05:51:52.541Z,0.00
2023-08-16T05:52:55.963Z,0.00
2023-08-16T05:53:59.226Z,0.00
2023-08-16T05:55:02.490Z,0.00
2023-08-16T05:56:05.861Z,0.00
2023-08-16T05:57:09.207Z,0.00
2023-08-16T05:58:12.546Z,0.00
2023-08-16T05:59:16.058Z,0.00
2023-08-16T06:00:19.424Z,0.00
2023-08-16T06:01:22.920Z,0.00
2023-08-16T06:02:26.243Z,0.00
2023-08-16T06:03:29.598Z,0.00
2023-08-16T06:04:32.878Z,0.00
2023-08-16T06:05:36.184Z,0.00
2023-08-16T06:06:39.553Z,0.00
2023-08-16T06:07:42.828Z,0.00
2023-08-16T06:08:46.006Z,0.00
2023-08-16T06:09:49.471Z,0.00
2023-08-16T06:10:52.675Z,0.00
2023-08-16T06:11:55.939Z,0.00
2023-08-16T06:12:59.157Z,0.00
2023-08-16T06:14:02.324Z,0.00
2023-08-16T06:15:05.385Z,0.00
2023-08-16T06:16:08.542Z,0.00
2023-08-16T06:17:11.680Z,0.00
2023-08-16T06:18:14.912Z,0.00
2023-08-16T06:19:18.025Z,0.00
2023-08-16T06:20:21.107Z,0.00
2023-08-16T06:21:24.268Z,0.00
2023-08-16T06:22:27.271Z,0.00
2023-08-16T06:23:30.677Z,0.00
2023-08-16T06:24:34.034Z,0.00
2023-08-16T06:25:37.228Z,0.00
2023-08-16T06:26:40.602Z,0.00
2023-08-16T06:27:43.891Z,0.00
2023-08-16T06:28:47.436Z,0.00
2023-08-16T06:29:50.680Z,0.00
2023-08-16T06:30:54.021Z,0.00
2023-08-16T06:31:57.541Z,0.00
2023-08-16T06:33:00.797Z,0.00
2023-08-16T06:34:04.020Z,0.00
2023-08-16T06:35:07.299Z,0.00
2023-08-16T06:36:10.456Z,0.00
2023-08-16T06:37:13.653Z,0.00
2023-08-16T06:38:16.746Z,0.00
2023-08-16T06:39:20.208Z,0.00
2023-08-16T06:40:23.544Z,0.00
2023-08-16T06:41:26.591Z,0.00
2023-08-16T06:42:29.780Z,0.00
2023-08-16T06:43:33.050Z,0.00
2023-08-16T06:44:36.177Z,0.00
2023-08-16T06:45:39.165Z,0.00
2023-08-16T06:46:42.678Z,0.00
2023-08-16T06:47:46.128Z,0.00
2023-08-16T06:48:49.370Z,0.00
2023-08-16T06:49:52.665Z,0.00
2023-08-16T06:50:55.903Z,0.00
2023-08-16T06:51:59.121Z,0.00
2023-08-16T06:53:02.417Z,0.00
2023-08-16T06:54:05.517Z,0.00
2023-08-16T06:55:09.099Z,0.00
2023-08-16T06:56:12.469Z,0.00
2023-08-16T06:57:15.953Z,0.00
2023-08-16T06:58:19.384Z,0.00
2023-08-16T06:59:22.737Z,0.00
2023-08-16T07:00:26.317Z,0.00
2023-08-16T07:01:29.408Z,0.00
2023-08-16T07:02:33.252Z,0.00
2023-08-16T07:03:37.397Z,0.00
2023-08-16T07:04:40.894Z,0.00
2023-08-16T07:05:44.280Z,0.00
2023-08-16T07:06:47.596Z,0.00
2023-08-16T07:07:50.709Z,0.00
2023-08-16T07:08:54.133Z,0.00
2023-08-16T07:09:57.426Z,0.00
2023-08-16T07:11:00.394Z,0.00
2023-08-16T07:12:04.084Z,0.00
2023-08-16T07:13:07.372Z,0.00
2023-08-16T07:14:10.755Z,0.00
2023-08-16T07:15:14.071Z,0.00
2023-08-16T07:16:17.665Z,0.00
2023-08-16T07:17:20.928Z,0.00
2023-08-16T07:18:24.233Z,0.00
2023-08-16T07:19:27.480Z,0.00
2023-08-16T07:20:30.883Z,0.00
2023-08-16T07:21:34.374Z,0.00
2023-08-16T07:22:37.851Z,0.00
2023-08-16T07:23:41.163Z,0.00
2023-08-16T07:24:44.480Z,0.00
2023-08-16T07:25:47.703Z,0.00
2023-08-16T07:26:50.893Z,0.00
2023-08-16T07:27:54.073Z,0.00
2023-08-16T07:28:57.248Z,0.00
2023-08-16T07:30:00.453Z,0.00
2023-08-16T07:31:03.625Z,0.00
2023-08-16T07:32:06.716Z,0.00
2023-08-16T07:33:10.002Z,0.00
2023-08-16T07:34:13.262Z,0.00
2023-08-16T07:35:16.234Z,0.00
2023-08-16T07:36:19.518Z,0.00
2023-08-16T07:37:22.623Z,0.00
2023-08-16T07:38:25.735Z,0.00
2023-08-16T07:39:28.873Z,0.00
2023-08-16T07:40:31.962Z,0.00
2023-08-16T07:41:35.124Z,0.00
2023-08-16T07:42:38.729Z,0.00
2023-08-16T07:43:41.905Z,0.00
2023-08-16T07:44:45.095Z,0.00
2023-08-16T07:45:48.450Z,0.00
2023-08-16T07:46:52.157Z,0.00
2023-08-16T07:47:56.316Z,0.00
2023-08-16T07:48:59.944Z,0.00
2023-08-16T07:50:03.749Z,0.00
2023-08-16T07:51:07.329Z,0.00
2023-08-16T07:52:10.711Z,0.00
2023-08-16T07:53:14.782Z,0.00
2023-08-16T07:54:18.523Z,0.00
2023-08-16T07:55:22.204Z,0.00
2023-08-16T07:56:25.758Z,0.00
2023-08-16T07:57:29.592Z,0.00
2023-08-16T07:58:33.308Z,0.00
2023-08-16T07:59:36.602Z,0.00
2023-08-16T08:00:39.991Z,0.00
2023-08-16T08:01:43.256Z,0.00
2023-08-16T08:02:57.471Z,0.00
2023-08-16T08:03:51.181Z,0.00
2023-08-16T08:04:54.306Z,0.00
2023-08-16T08:05:57.741Z,0.00
2023-08-16T08:07:00.885Z,0.00
2023-08-16T08:08:04.196Z,0.00
2023-08-16T08:09:07.611Z,0.00
2023-08-16T08:10:10.914Z,0.00
2023-08-16T08:11:14.272Z,0.00
2023-08-16T08:12:17.743Z,0.00
2023-08-16T08:13:21.144Z,0.00
2023-08-16T08:14:24.820Z,0.00
2023-08-16T08:15:28.079Z,0.00
2023-08-16T08:16:31.231Z,0.00
2023-08-16T08:17:34.400Z,0.00
2023-08-16T08:18:37.566Z,0.00
2023-08-16T08:19:40.831Z,0.00
2023-08-16T08:20:44.012Z,0.00
2023-08-16T08:21:47.171Z,0.00
2023-08-16T08:22:50.413Z,0.00
2023-08-16T08:23:53.567Z,0.00
2023-08-16T08:24:56.743Z,0.00
2023-08-16T08:25:59.838Z,0.00
2023-08-16T08:27:02.921Z,0.00
2023-08-16T08:28:06.055Z,0.00
2023-08-16T08:29:09.028Z,0.00
2023-08-16T08:30:12.518Z,0.00
2023-08-16T08:31:15.576Z,0.00
2023-08-16T08:32:19.132Z,0.00
2023-08-16T08:33:22.517Z,0.00
2023-08-16T08:34:25.900Z,0.00
2023-08-16T08:35:29.176Z,0.00
2023-08-16T08:36:32.780Z,0.00
2023-08-16T08:37:36.154Z,0.00
2023-08-16T08:38:39.541Z,0.00
2023-08-16T08:39:42.934Z,0.00
2023-08-16T08:40:46.425Z,0.00
2023-08-16T08:41:49.610Z,0.00
2023-08-16T08:42:52.958Z,0.00
2023-08-16T08:43:59.850Z,0.00
2023-08-16T08:45:00.609Z,0.00
2023-08-16T08:46:04.107Z,0.00
2023-08-16T08:48:12.618Z,0.00
2023-08-16T08:49:15.848Z,0.00
2023-08-16T08:50:19.168Z,0.00
2023-08-16T08:51:22.543Z,0.00
2023-08-16T08:51:37.341Z,0.00
2023-08-16T08:52:26.174Z,0.00
2023-08-16T08:53:30.040Z,0.00
2023-08-16T08:54:36.195Z,0.00
2023-08-16T08:55:39.693Z,0.00
2023-08-16T08:56:43.544Z,0.00
2023-08-16T08:57:47.446Z,0.00
2023-08-16T08:58:57.687Z,0.00
2023-08-16T08:59:55.139Z,0.00
2023-08-16T09:00:58.210Z,0.00
2023-08-16T09:02:01.832Z,0.00
2023-08-16T09:03:05.132Z,0.00
2023-08-16T09:04:08.549Z,0.00
2023-08-16T09:05:11.737Z,0.00
2023-08-16T09:06:15.047Z,0.00
2023-08-16T09:07:18.748Z,0.00
2023-08-16T09:08:22.742Z,0.00
2023-08-16T09:09:26.335Z,0.00
2023-08-16T09:10:29.589Z,0.00
2023-08-16T09:11:32.916Z,0.00
2023-08-16T09:12:36.292Z,0.00
2023-08-16T09:13:39.882Z,0.00
2023-08-16T09:14:43.480Z,0.00
2023-08-16T09:15:46.916Z,0.00
2023-08-16T09:16:50.245Z,0.00
2023-08-16T09:17:53.498Z,0.00
2023-08-16T09:18:56.726Z,0.00
2023-08-16T09:20:00.065Z,0.00
2023-08-16T09:21:03.156Z,0.00
2023-08-16T09:22:06.370Z,0.00
2023-08-16T09:23:09.705Z,0.00
2023-08-16T09:24:13.346Z,0.00
2023-08-16T09:25:16.829Z,0.00
2023-08-16T09:26:20.318Z,0.00
2023-08-16T09:27:23.725Z,0.00
2023-08-16T09:28:30.161Z,0.00
2023-08-16T09:29:33.449Z,0.00
2023-08-16T09:30:39.905Z,0.00
2023-08-16T09:31:43.240Z,0.00
2023-08-16T09:32:49.766Z,0.00
2023-08-16T09:33:56.221Z,0.00
2023-08-16T09:35:01.087Z,0.00
2023-08-16T09:36:06.565Z,0.00
2023-08-16T09:37:10.053Z,0.00
2023-08-16T09:39:17.943Z,0.00
2023-08-16T09:40:21.444Z,0.00
2023-08-16T09:41:27.492Z,0.43
2023-08-16T09:42:30.877Z,0.50
2023-08-16T09:43:34.064Z,0.00
2023-08-16T09:44:37.550Z,0.00
2023-08-16T09:45:43.687Z,0.00
2023-08-16T09:50:02.930Z,0.00
2023-08-16T09:53:19.311Z,0.00
2023-08-16T09:54:19.507Z,0.00
2023-08-16T09:55:22.892Z,0.00
2023-08-16T09:57:30.727Z,0.00
2023-08-16T09:58:40.321Z,0.00
2023-08-16T09:59:43.987Z,0.00
2023-08-16T10:00:50.286Z,0.00
2023-08-16T10:01:54.241Z,0.00
2023-08-16T10:02:57.921Z,0.50
2023-08-16T10:05:05.661Z,0.13
2023-08-16T10:07:18.954Z,0.00
2023-08-16T10:08:24.933Z,0.00
2023-08-16T10:09:28.425Z,0.00
2023-08-16T10:10:34.265Z,0.00
2023-08-16T10:11:40.515Z,0.00
2023-08-16T10:12:44.106Z,0.00
2023-08-16T10:13:47.604Z,0.00
2023-08-16T10:14:51.192Z,0.00
2023-08-16T10:15:57.542Z,0.00
2023-08-16T10:17:01.022Z,0.00
2023-08-16T10:18:07.229Z,0.00
2023-08-16T10:19:10.822Z,0.00
2023-08-16T10:20:14.466Z,0.00
2023-08-16T10:21:20.824Z,0.00
2023-08-16T10:23:28.522Z,0.00
2023-08-16T10:24:33.710Z,0.00
2023-08-16T10:25:36.553Z,0.00
2023-08-16T10:26:42.897Z,0.00
2023-08-16T10:27:46.293Z,0.13
2023-08-16T10:28:49.551Z,0.00
2023-08-16T10:29:52.835Z,0.00
2023-08-16T10:31:13.522Z,0.00
2023-08-16T10:32:04.020Z,0.00
2023-08-16T10:33:07.432Z,0.00
2023-08-16T10:34:10.608Z,0.00
2023-08-16T10:35:13.873Z,0.00
2023-08-16T10:36:20.182Z,0.00
2023-08-16T10:37:25.663Z,0.00
2023-08-16T10:38:28.834Z,0.00
2023-08-16T10:39:32.325Z,0.00
2023-08-16T10:40:35.815Z,0.00
2023-08-16T10:41:39.491Z,0.00
2023-08-16T10:42:45.558Z,0.00
2023-08-16T10:43:50.367Z,0.00
2023-08-16T10:44:56.738Z,0.00
2023-08-16T10:46:00.277Z,0.00
2023-08-16T10:47:06.275Z,0.00
2023-08-16T10:48:09.992Z,0.00
2023-08-16T10:49:13.437Z,0.00
2023-08-16T10:50:17.042Z,0.00
2023-08-16T10:51:20.667Z,0.00
2023-08-16T10:52:27.093Z,0.00
2023-08-16T10:53:30.632Z,0.00
2023-08-16T10:54:34.276Z,0.00
2023-08-16T10:55:37.895Z,0.00
2023-08-16T10:56:41.253Z,0.00
2023-08-16T10:57:44.861Z,0.00
2023-08-16T10:58:51.408Z,0.00
2023-08-16T10:59:57.635Z,0.00
2023-08-16T11:01:04.133Z,0.00
2023-08-16T11:02:07.690Z,0.00
2023-08-16T11:03:11.215Z,0.00
2023-08-16T11:04:14.693Z,0.00
2023-08-16T11:05:18.479Z,0.00
2023-08-16T11:06:24.641Z,0.00
2023-08-16T11:07:28.124Z,0.00
2023-08-16T11:08:31.619Z,0.00
2023-08-16T11:09:35.115Z,0.00
2023-08-16T11:10:38.634Z,0.00
2023-08-16T11:11:42.191Z,0.00
2023-08-16T11:12:48.731Z,0.00
2023-08-16T11:13:55.210Z,0.00
2023-08-16T11:14:58.550Z,0.00
2023-08-16T11:16:02.126Z,0.00
2023-08-16T11:17:05.647Z,0.00
2023-08-16T11:18:09.963Z,0.00
2023-08-16T11:20:20.809Z,0.00
2023-08-16T11:21:27.036Z,0.00
2023-08-16T11:22:33.471Z,0.00
2023-08-16T11:23:36.853Z,0.00
2023-08-16T11:24:40.161Z,0.00
2023-08-16T11:25:43.520Z,0.00
2023-08-16T11:26:46.807Z,0.00
2023-08-16T11:27:50.194Z,0.00
2023-08-16T11:28:53.450Z,0.00
2023-08-16T11:29:56.775Z,0.00
2023-08-16T11:31:03.322Z,0.00
2023-08-16T11:32:06.821Z,0.00
2023-08-16T11:33:09.999Z,0.00
2023-08-16T11:34:13.472Z,0.00
2023-08-16T11:35:19.837Z,0.00
2023-08-16T11:36:23.334Z,0.00
2023-08-16T11:37:29.480Z,0.00
2023-08-16T11:38:32.994Z,0.00
2023-08-16T11:39:39.520Z,0.00
2023-08-16T11:40:43.131Z,0.00
2023-08-16T11:41:46.510Z,0.00
2023-08-16T11:42:50.174Z,0.00
2023-08-16T11:43:56.661Z,0.00
2023-08-16T11:45:00.557Z,0.00
2023-08-16T11:46:04.242Z,0.00
2023-08-16T11:47:07.871Z,0.00
2023-08-16T11:48:12.022Z,0.00
2023-08-16T11:49:15.550Z,0.00
2023-08-16T11:50:21.786Z,0.00
2023-08-16T11:51:25.377Z,0.00
2023-08-16T11:52:31.734Z,0.00
2023-08-16T11:53:35.260Z,0.00
2023-08-16T11:54:38.824Z,0.00
2023-08-16T11:55:42.314Z,0.00
2023-08-16T11:56:48.661Z,0.00
2023-08-16T11:57:52.152Z,0.00
2023-08-16T11:58:55.352Z,0.00
2023-08-16T12:00:01.694Z,0.00
2023-08-16T12:01:05.682Z,0.00
2023-08-16T12:02:09.221Z,0.00
2023-08-16T12:03:13.059Z,0.00
2023-08-16T12:04:19.292Z,0.00
2023-08-16T12:05:22.824Z,0.00
2023-08-16T12:06:28.777Z,0.00
2023-08-16T12:07:32.682Z,0.00
2023-08-16T12:08:36.395Z,0.00
2023-08-16T12:09:39.518Z,0.00
2023-08-16T12:10:45.904Z,0.00
2023-08-16T12:11:51.955Z,0.00
2023-08-16T12:12:55.109Z,0.00
2023-08-16T12:13:58.415Z,0.00
2023-08-16T12:15:01.684Z,0.00
2023-08-16T12:16:05.023Z,0.00
2023-08-16T12:17:11.347Z,0.00
2023-08-16T12:18:17.535Z,0.00
2023-08-16T12:19:21.128Z,0.00
2023-08-16T12:20:27.524Z,0.00
2023-08-16T12:21:31.134Z,0.00
2023-08-16T12:22:34.733Z,0.00
2023-08-16T12:23:38.110Z,0.00
2023-08-16T12:24:44.472Z,0.00
2023-08-16T12:25:47.966Z,0.00
2023-08-16T12:26:51.554Z,0.00
2023-08-16T12:27:55.343Z,0.00
2023-08-16T12:28:59.049Z,0.00
2023-08-16T12:30:05.093Z,0.00
2023-08-16T12:31:08.815Z,0.00
2023-08-16T12:32:12.485Z,0.00
2023-08-16T12:33:15.884Z,0.00
2023-08-16T12:34:22.328Z,0.00
2023-08-16T12:35:25.914Z,0.00
2023-08-16T12:36:29.328Z,0.00
2023-08-16T12:37:34.485Z,0.00
2023-08-16T12:38:37.612Z,0.00
2023-08-16T12:39:42.318Z,0.00
2023-08-16T12:40:48.377Z,0.00
2023-08-16T12:41:53.304Z,0.00
2023-08-16T12:42:56.378Z,0.00
2023-08-16T12:44:02.734Z,0.00
2023-08-16T12:45:06.014Z,0.00
2023-08-16T12:46:09.401Z,0.00
2023-08-16T12:47:12.996Z,0.00
2023-08-16T12:48:16.428Z,0.00
2023-08-16T12:49:19.730Z,0.00
2023-08-16T12:50:25.922Z,0.00
2023-08-16T12:51:34.940Z,0.00
2023-08-16T12:52:38.222Z,0.00
2023-08-16T12:53:53.592Z,0.00
2023-08-16T12:54:56.982Z,0.00
2023-08-16T12:56:00.158Z,0.00
2023-08-16T12:57:06.778Z,0.00
2023-08-16T12:59:18.256Z,0.00
2023-08-16T13:00:25.284Z,0.00
2023-08-16T13:03:38.978Z,0.00
2023-08-16T13:04:57.470Z,0.00
2023-08-16T13:06:52.912Z,0.00
2023-08-16T13:11:32.907Z,0.00
2023-08-16T13:12:32.674Z,0.00
2023-08-16T13:13:33.394Z,0.00
2023-08-16T13:15:44.284Z,0.37
2023-08-16T13:16:47.456Z,0.00
2023-08-16T13:18:19.114Z,0.00
2023-08-16T13:19:01.960Z,0.00
2023-08-16T13:20:03.138Z,0.50
2023-08-16T13:21:19.206Z,0.88
2023-08-16T13:24:36.749Z,0.50
2023-08-16T13:28:46.012Z,1.87
2023-08-16T13:29:57.843Z,1.12
2023-08-16T13:31:13.044Z,3.00
2023-08-16T13:35:33.050Z,3.00
2023-08-16T13:38:49.308Z,2.62
2023-08-16T13:40:02.315Z,3.00
2023-08-16T13:45:17.678Z,2.50
2023-08-16T13:46:18.563Z,2.50
2023-08-16T13:47:21.853Z,3.00
2023-08-16T13:48:25.035Z,3.00
2023-08-16T13:49:28.309Z,3.00
2023-08-16T13:50:31.464Z,3.00
2023-08-16T13:51:34.667Z,3.00
2023-08-16T13:52:38.052Z,2.71
2023-08-16T13:53:41.221Z,2.67
2023-08-16T13:54:44.422Z,2.33
2023-08-16T13:55:47.597Z,3.00
2023-08-16T13:56:50.780Z,2.57
2023-08-16T13:57:53.972Z,2.43
2023-08-16T13:58:57.255Z,3.00
2023-08-16T14:00:00.539Z,3.00
2023-08-16T14:01:03.829Z,2.43
2023-08-16T14:02:07.224Z,3.00
2023-08-16T14:03:10.397Z,3.00
2023-08-16T14:04:13.566Z,3.00
2023-08-16T14:05:16.823Z,3.00
2023-08-16T14:06:20.155Z,3.00
2023-08-16T14:07:23.421Z,3.00
2023-08-16T14:08:26.728Z,2.33
2023-08-16T14:09:29.741Z,2.43
2023-08-16T14:10:33.070Z,3.00
2023-08-16T14:11:36.374Z,3.00
2023-08-16T14:12:39.640Z,3.00
2023-08-16T14:13:42.919Z,3.00
2023-08-16T14:14:46.094Z,3.14
2023-08-16T14:15:49.297Z,3.67
2023-08-16T14:16:52.770Z,3.00
2023-08-16T14:17:55.988Z,3.00
2023-08-16T14:19:05.278Z,3.57
2023-08-16T14:20:08.468Z,3.00
2023-08-16T14:21:11.758Z,3.43
2023-08-16T14:22:18.536Z,3.57
2023-08-16T14:23:24.665Z,3.00
2023-08-16T14:24:27.949Z,3.50
2023-08-16T14:25:31.135Z,3.57
2023-08-16T14:26:34.586Z,3.00
2023-08-16T14:27:44.458Z,3.00
2023-08-16T14:28:47.723Z,3.25
2023-08-16T14:29:50.924Z,3.57
2023-08-16T14:30:54.104Z,3.00
2023-08-16T14:32:00.340Z,2.57
2023-08-16T14:33:03.531Z,3.00
2023-08-16T14:34:09.619Z,3.00
2023-08-16T14:35:15.580Z,3.00
2023-08-16T14:36:18.716Z,3.00
2023-08-16T14:37:22.003Z,3.00
2023-08-16T14:38:25.414Z,3.00
2023-08-16T14:39:31.693Z,2.57
2023-08-16T14:41:53.877Z,2.62
2023-08-16T14:42:57.363Z,3.00
2023-08-16T14:44:00.858Z,2.57
2023-08-16T14:45:04.448Z,2.43